Latest Weather Observations for Lucas Heights

IDN60801

Issued at 10:35 am EST Monday 20 April 2015 (issued every 30 minutes, with the page automatically refreshed every 10 minutes)

About weather observations | Map of weather stations | Latest weather observations for NSW | Other Formats
Station Details ID: 066023 Name: LUCAS HEIGHTS AWS Lat: -34.05 Lon: 150.98 Height: 140.0 m
Data from the previous 72 hours. | See also: Recent months for locations in New South Wales
Date/Time
EST
Temp
°C
App
Temp
°C
Dew
Point
Rel
Hum
%
Delta-T
°C
Wind Press
QNH
hPa
Press
MSL
hPa
Rain
since 9 am
mm
Dir
 
Spd
km/h
Gust
km/h
Spd
kts
Gust
kts
20/10:15am 13.3 8.3 12.3 94 0.5 S 30 52 16 28 1024.2 - 2.9
20/10:00am 13.3 8.3 12.3 94 0.5 S 30 52 16 28 1024.6 - 2.3
20/09:45am 13.1 7.6 12.0 93 0.6 S 32 59 17 32 1024.6 - 2.2
20/09:30am 13.1 7.4 11.9 92 0.6 SSE 33 63 18 34 1023.9 - 2.0
20/09:15am 13.0 6.1 11.7 92 0.7 S 39 54 21 29 1023.4 - 0.9
20/09:00am 13.1 7.9 11.7 91 0.8 S 30 59 16 32 1024.0 - 3.2
20/08:45am 13.2 8.1 11.8 91 0.8 S 30 54 16 29 1024.4 - 2.5
20/08:30am 13.2 7.7 11.8 91 0.8 S 32 54 17 29 1024.3 - 2.5
20/08:15am 13.2 7.5 11.9 92 0.7 S 33 57 18 31 1023.8 - 2.5
20/08:00am 12.9 7.3 11.6 92 0.7 S 32 52 17 28 1023.8 - 2.5
20/07:45am 12.6 7.7 11.3 92 0.7 S 28 50 15 27 1024.0 - 2.5
20/07:30am 12.5 8.3 11.1 91 0.7 S 24 43 13 23 1024.3 - 2.5
20/07:15am 12.4 7.4 11.0 91 0.7 S 28 46 15 25 1024.1 - 2.2
20/07:00am 12.2 7.5 10.8 91 0.7 S 26 44 14 24 1023.8 - 2.2
20/06:45am 12.1 7.0 10.6 90 0.8 S 28 48 15 26 1023.6 - 2.0
20/06:30am 12.0 6.9 10.5 90 0.8 S 28 44 15 24 1023.8 - 2.0
20/06:15am 12.3 7.2 10.6 89 0.9 S 28 48 15 26 1023.9 - 1.8
20/06:00am 12.4 7.7 10.7 89 0.9 S 26 39 14 21 1023.9 - 1.8
20/05:45am 12.2 7.9 10.7 90 0.8 S 24 39 13 21 1023.9 - 1.8
20/05:30am 12.2 7.5 10.7 90 0.8 S 26 41 14 22 1023.8 - 1.6
20/05:15am 12.0 8.4 10.5 90 0.8 S 20 33 11 18 1023.7 - 1.6
20/05:00am 11.7 8.0 10.3 91 0.7 S 20 32 11 17 1023.7 - 1.6
20/04:45am 11.7 7.2 10.2 90 0.8 S 24 43 13 23 1023.7 - 1.6
20/04:30am 11.6 6.8 10.2 91 0.7 S 26 43 14 23 1023.6 - 1.6
20/04:15am 11.5 6.2 10.0 90 0.8 S 28 43 15 23 1023.5 - 1.6
20/04:00am 11.5 6.2 9.9 90 0.8 S 28 44 15 24 1023.4 - 1.6
20/03:45am 11.6 6.7 10.0 90 0.8 S 26 50 14 27 1023.5 - 1.6
20/03:30am 11.6 7.1 9.9 89 0.9 S 24 43 13 23 1023.5 - 1.6
20/03:15am 11.7 6.1 10.0 89 0.9 S 30 52 16 28 1023.8 - 1.6
20/03:00am 12.0 6.8 10.3 89 0.9 S 28 44 15 24 1024.3 - 1.4
20/02:45am 11.9 7.5 10.3 90 0.8 S 24 39 13 21 1024.4 - 1.4
20/02:30am 11.8 8.1 10.2 90 0.8 S 20 37 11 20 1024.3 - 1.4
20/02:15am 11.6 7.5 10.1 90 0.8 S 22 39 12 21 1024.2 - 1.4
20/02:00am 11.5 6.3 10.1 91 0.7 S 28 48 15 26 1024.1 - 1.4
20/01:45am 11.5 5.9 10.1 91 0.7 S 30 48 16 26 1024.5 - 1.4
20/01:30am 11.4 6.5 10.0 91 0.7 S 26 44 14 24 1024.9 - 1.4
20/01:15am 11.5 6.2 10.0 90 0.8 S 28 44 15 24 1025.0 - 1.3
20/01:00am 11.5 7.4 10.1 91 0.7 S 22 44 12 24 1024.9 - 1.3
20/12:45am 11.6 7.1 10.0 90 0.8 S 24 39 13 21 1025.1 - 1.1
20/12:30am 11.8 7.0 10.2 90 0.8 S 26 39 14 21 1025.2 - 1.1
20/12:15am 11.6 7.5 10.0 90 0.8 S 22 37 12 20 1025.2 - 0.9
20/12:00am 11.7 7.6 10.1 90 0.8 SSW 22 32 12 17 1025.4 - 0.9
 
Date/Time
EST
Temp
°C
App
Temp
°C
Dew
Point
Rel
Hum
%
Delta-T
°C
Wind Press
QNH
hPa
Press
MSL
hPa
Rain
since 9 am
mm
Dir
 
Spd
km/h
Gust
km/h
Spd
kts
Gust
kts
19/11:45pm 11.6 8.4 10.0 90 0.8 S 17 30 9 16 1025.5 - 0.7
19/11:30pm 11.6 7.0 9.8 89 0.9 S 24 41 13 22 1025.5 - 0.7
19/11:15pm 11.7 8.1 9.7 87 1.0 S 19 39 10 21 1025.5 - 0.5
19/11:00pm 12.0 7.8 9.6 85 1.2 S 22 39 12 21 1025.5 - 0.4
19/10:45pm 12.5 7.9 9.6 82 1.5 S 24 41 13 22 1025.5 - 0.0
19/10:30pm 12.9 7.9 9.7 81 1.6 S 26 43 14 23 1025.5 - 0.0
19/10:15pm 13.2 9.0 9.9 80 1.7 S 22 35 12 19 1025.4 - 0.0
19/10:00pm 13.4 9.3 10.0 80 1.8 S 22 43 12 23 1025.3 - 0.0
19/09:45pm 13.5 8.6 10.1 80 1.8 S 26 50 14 27 1025.0 - 0.0
19/09:30pm 13.6 8.4 10.1 79 1.8 S 28 43 15 23 1024.8 - 0.0
19/09:15pm 13.7 8.8 9.8 77 2.0 S 26 44 14 24 1024.7 - 0.0
19/09:00pm 13.7 9.5 9.7 77 2.1 S 22 39 12 21 1025.0 - 0.0
19/08:45pm 13.6 9.4 9.6 77 2.1 S 22 43 12 23 1024.9 - 0.0
19/08:30pm 13.5 8.9 9.5 77 2.1 SSW 24 46 13 25 1024.7 - 0.0
19/08:15pm 13.3 8.7 9.5 78 2.0 SSW 24 37 13 20 1024.5 - 0.0
19/08:00pm 13.3 8.3 9.5 78 2.0 S 26 46 14 25 1024.2 - 0.0
19/07:45pm 13.3 7.9 9.5 78 2.0 S 28 48 15 26 1023.9 - 0.0
19/07:30pm 13.3 7.5 9.5 78 2.0 S 30 44 16 24 1023.5 - 0.0
19/07:15pm 13.4 8.0 9.5 77 2.0 S 28 44 15 24 1023.0 - 0.0
19/07:00pm 13.6 7.8 9.6 77 2.1 S 30 48 16 26 1022.8 - 0.0
19/06:45pm 13.6 7.5 9.7 77 2.0 S 32 52 17 28 1022.7 - 0.0
19/06:30pm 13.7 8.4 10.0 78 1.9 S 28 43 15 23 1022.5 - 0.0
19/06:15pm 13.9 8.0 10.4 79 1.8 S 32 48 17 26 1022.3 - 0.0
19/06:00pm 14.0 8.5 10.7 80 1.7 S 30 50 16 27 1022.1 - 0.0
19/05:45pm 14.2 8.2 10.9 80 1.8 SSE 33 54 18 29 1021.8 - 0.0
19/05:30pm 14.6 8.3 11.1 79 1.9 SSE 35 54 19 29 1021.6 - 0.0
19/05:15pm 14.8 9.1 11.0 78 2.0 SSE 32 48 17 26 1021.6 - 0.0
19/05:00pm 15.1 8.1 11.2 77 2.1 SSE 39 61 21 33 1021.3 - 0.0
19/04:45pm 15.7 9.1 11.4 75 2.3 SSE 37 57 20 31 1021.0 - 0.0
19/04:30pm 16.4 10.3 11.7 74 2.6 SSE 35 57 19 31 1020.6 - 0.0
19/04:15pm 16.9 11.9 12.2 74 2.6 SSE 30 50 16 27 1020.4 - 0.0
19/04:00pm 17.0 10.3 12.3 74 2.6 SSE 39 57 21 31 1020.2 - 0.0
19/03:45pm 17.1 11.6 12.6 75 2.5 SSE 33 57 18 31 1020.1 - 0.0
19/03:30pm 17.3 12.0 13.2 77 2.3 SSE 33 52 18 28 1020.1 - 0.0
19/03:15pm 17.3 10.9 13.1 76 2.4 SSE 39 54 21 29 1019.9 - 0.0
19/03:00pm 17.7 13.1 13.6 77 2.3 SSE 30 44 16 24 1019.7 - 0.0
19/02:45pm 17.8 12.6 13.5 76 2.4 S 33 52 18 28 1019.6 - 0.0
19/02:30pm 18.1 13.9 13.6 75 2.6 SSE 28 44 15 24 1019.4 - 0.0
19/02:15pm 18.0 13.8 13.6 75 2.5 SSE 28 43 15 23 1019.4 - 0.0
19/02:00pm 17.9 13.4 13.8 77 2.3 S 30 50 16 27 1019.3 - 0.0
19/01:45pm 18.1 13.0 13.8 76 2.5 S 33 43 18 23 1019.2 - 0.0
19/01:30pm 18.4 15.2 14.2 76 2.4 SSE 24 39 13 21 1019.1 - 0.0
19/01:15pm 18.4 14.1 14.3 77 2.4 SSE 30 41 16 22 1019.2 - 0.0
19/01:00pm 19.0 15.6 14.7 76 2.5 SSE 26 37 14 20 1019.2 - 0.0
19/12:45pm 19.1 16.5 14.9 76 2.5 SSE 22 37 12 20 1019.2 - 0.0
19/12:30pm 18.8 15.3 14.4 75 2.6 SSE 26 39 14 21 1019.3 - 0.0
19/12:15pm 19.4 16.4 14.8 75 2.7 SSE 24 37 13 20 1019.3 - 0.0
19/12:00pm 19.0 16.9 14.6 75 2.6 SSE 19 32 10 17 1019.3 - 0.0
19/11:45am 19.1 16.4 13.6 70 3.2 SSE 20 32 11 17 1019.2 - 0.0
19/11:30am 20.8 20.5 13.4 62 4.3 S 7 26 4 14 1019.1 - 0.0
19/11:15am 20.7 20.5 13.7 64 4.1 SSW 7 17 4 9 1019.2 - 0.0
19/11:00am 20.5 18.7 13.2 63 4.2 SW 15 20 8 11 1019.1 - 0.0
19/10:45am 20.1 18.2 13.1 64 4.0 SW 15 22 8 12 1019.0 - 0.0
19/10:30am 19.7 17.3 12.7 64 4.0 SW 17 24 9 13 1019.0 - 0.0
19/10:15am 19.6 17.6 12.8 65 3.9 SW 15 22 8 12 1019.0 - 0.0
19/10:00am 19.3 17.2 12.5 64 3.8 SW 15 22 8 12 1018.8 - 0.0
19/09:45am 19.1 16.7 12.6 66 3.7 SW 17 30 9 16 1018.7 - 0.0
19/09:30am 18.5 15.6 12.2 66 3.5 SW 19 26 10 14 1018.7 - 0.0
19/09:15am 18.1 15.1 11.8 66 3.5 SW 19 32 10 17 1018.6 - 0.0
19/09:00am 18.1 15.1 11.9 67 3.4 SW 19 28 10 15 1018.5 - 5.6
19/08:45am 17.5 14.4 11.5 68 3.3 SW 19 33 10 18 1018.3 - 5.6
19/08:30am 17.3 13.6 11.4 68 3.2 WSW 22 33 12 18 1017.9 - 5.6
19/08:15am 16.9 13.3 11.7 71 2.9 WSW 22 30 12 16 1017.8 - 5.6
19/08:00am 16.9 13.3 13.0 78 2.2 WSW 24 32 13 17 1017.8 - 5.6
19/07:45am 16.5 13.5 14.7 89 1.0 SW 24 28 13 15 1017.6 - 5.6
19/07:30am 15.9 12.6 14.9 94 0.6 SW 26 30 14 16 1017.2 - 5.6
19/07:15am 15.6 13.0 14.8 95 0.5 SSW 22 24 12 13 1016.7 - 5.6
19/07:00am 15.6 13.0 14.9 96 0.4 SW 22 24 12 13 1016.4 - 5.6
19/06:45am 15.7 13.1 15.0 96 0.4 SW 22 28 12 15 1016.2 - 5.6
19/06:30am 15.7 14.1 15.0 96 0.4 SW 17 24 9 13 1015.8 - 5.6
19/06:15am 15.8 14.6 15.1 96 0.4 SW 15 19 8 10 1015.5 - 5.6
19/06:00am 15.9 14.4 15.2 96 0.4 SW 17 19 9 10 1015.3 - 5.6
19/05:45am 16.0 14.9 15.3 96 0.4 SW 15 19 8 10 1015.1 - 5.6
19/05:30am 16.3 16.8 15.6 96 0.4 SW 7 13 4 7 1015.0 - 5.6
19/05:15am 16.6 17.4 15.9 96 0.4 WNW 6 9 3 5 1015.1 - 5.6
19/05:00am 16.8 17.5 16.1 96 0.4 NW 7 9 4 5 1014.9 - 5.6
19/04:45am 16.9 17.6 16.2 96 0.4 WNW 7 13 4 7 1014.6 - 5.6
19/04:30am 17.0 17.9 16.2 95 0.5 W 6 11 3 6 1014.4 - 5.6
19/04:15am 17.1 17.5 16.3 95 0.5 W 9 11 5 6 1014.2 - 5.6
19/04:00am 17.2 17.7 16.5 96 0.4 W 9 15 5 8 1014.1 - 5.6
19/03:45am 17.3 17.4 16.5 95 0.5 WNW 11 17 6 9 1014.0 - 5.6
19/03:30am 17.2 16.9 16.5 96 0.4 W 13 17 7 9 1013.9 - 5.6
19/03:15am 17.2 16.1 16.4 95 0.5 W 17 19 9 10 1013.8 - 5.6
19/03:00am 17.2 16.5 16.4 95 0.5 W 15 19 8 10 1013.7 - 5.6
19/02:45am 17.3 17.0 16.5 95 0.5 W 13 17 7 9 1013.8 - 5.6
19/02:30am 17.3 17.4 16.5 95 0.5 W 11 15 6 8 1013.9 - 5.4
19/02:15am 17.3 17.4 16.5 95 0.5 WNW 11 15 6 8 1013.7 - 5.4
19/02:00am 17.3 17.8 16.5 95 0.5 WNW 9 13 5 7 1013.5 - 5.4
19/01:45am 17.4 17.9 16.5 94 0.5 NW 9 13 5 7 1013.8 - 5.4
19/01:30am 17.5 17.6 16.6 94 0.5 NW 11 17 6 9 1014.0 - 5.4
19/01:15am 17.5 17.3 16.6 94 0.5 NW 13 17 7 9 1014.6 - 5.4
19/01:00am 17.5 16.9 16.6 94 0.5 NW 15 22 8 12 1014.8 - 5.2
19/12:45am 17.6 16.6 16.6 94 0.6 NNW 17 24 9 13 1014.6 - 5.2
19/12:30am 17.6 16.6 16.6 94 0.6 NNW 17 22 9 12 1014.6 - 4.9
19/12:15am 17.5 16.0 16.3 93 0.7 NNW 19 24 10 13 1014.8 - 4.7
19/12:00am 17.6 16.0 16.5 93 0.7 NNW 20 26 11 14 1014.8 - 4.3
 
Date/Time
EST
Temp
°C
App
Temp
°C
Dew
Point
Rel
Hum
%
Delta-T
°C
Wind Press
QNH
hPa
Press
MSL
hPa
Rain
since 9 am
mm
Dir
 
Spd
km/h
Gust
km/h
Spd
kts
Gust
kts
18/11:45pm 17.7 16.3 16.5 93 0.7 NNW 19 24 10 13 1014.7 - 4.0
18/11:30pm 17.8 16.4 16.5 92 0.8 NW 19 22 10 12 1014.7 - 3.4
18/11:15pm 17.9 16.5 16.6 92 0.8 NW 19 24 10 13 1014.8 - 2.7
18/11:00pm 18.1 17.5 16.7 91 0.8 NW 15 22 8 12 1015.0 - 2.0
18/10:45pm 18.3 17.7 16.7 90 1.0 NW 15 19 8 10 1015.2 - 1.4
18/10:30pm 18.6 18.1 16.8 89 1.1 NW 15 19 8 10 1015.0 - 1.1
18/10:15pm 18.9 18.4 16.8 87 1.3 WNW 15 22 8 12 1015.1 - 0.9
18/10:00pm 19.3 18.5 17.0 86 1.4 WNW 17 22 9 12 1015.1 - 0.5
18/09:45pm 19.5 18.7 17.2 86 1.4 W 17 24 9 13 1015.1 - 0.2
18/09:30pm 19.4 18.5 16.9 85 1.5 WNW 17 24 9 13 1015.1 - 0.2
18/09:15pm 19.9 18.9 16.7 82 1.9 WNW 17 26 9 14 1015.0 - 0.2
18/09:00pm 20.9 19.6 17.2 79 2.3 WNW 20 37 11 20 1014.4 - 0.0
18/08:45pm 20.7 21.4 17.0 79 2.3 N 9 13 5 7 1013.6 - 0.0
18/08:30pm 20.6 21.3 17.0 80 2.2 N 9 13 5 7 1013.6 - 0.0
18/08:15pm 20.7 21.0 16.9 79 2.3 N 11 15 6 8 1013.6 - 0.0
18/08:00pm 20.8 21.1 16.9 78 2.4 N 11 13 6 7 1013.7 - 0.0
18/07:45pm 20.9 21.2 16.9 78 2.4 - 11 15 6 8 1013.6 - 0.0
18/07:30pm 21.1 21.4 17.0 77 2.5 - 11 17 6 9 1013.6 - 0.0
18/07:15pm 21.2 21.1 16.9 76 2.6 N 13 17 7 9 1013.4 - 0.0
18/07:00pm 21.5 21.4 17.0 75 2.8 N 13 19 7 10 1013.5 - 0.0
18/06:45pm 21.7 21.6 17.0 74 2.9 N 13 19 7 10 1013.5 - 0.0
18/06:30pm 21.9 21.8 17.0 73 3.0 N 13 19 7 10 1013.4 - 0.0
18/06:15pm 22.1 22.0 17.0 73 3.1 - 13 19 7 10 1013.4 - 0.0
18/06:00pm 22.3 22.2 16.9 71 3.3 - 13 20 7 11 1013.2 - 0.0
18/05:45pm 22.6 22.1 16.9 70 3.5 N 15 24 8 13 1013.1 - 0.0
18/05:30pm 22.7 22.2 17.0 70 3.5 N 15 20 8 11 1013.0 - 0.0
18/05:15pm 22.9 22.9 17.1 70 3.6 N 13 22 7 12 1013.1 - 0.0
18/05:00pm 23.3 22.9 17.2 68 3.8 N 15 24 8 13 1013.1 - 0.0
18/04:45pm 23.6 23.0 17.5 68 3.8 N 17 24 9 13 1013.1 - 0.0
18/04:30pm 23.8 23.6 17.7 68 3.8 N 15 24 8 13 1013.1 - 0.0
18/04:15pm 24.1 23.6 17.7 67 4.0 N 17 28 9 15 1013.3 - 0.0
18/04:00pm 24.3 23.4 17.7 66 4.1 N 19 30 10 16 1013.4 - 0.0
18/03:45pm 24.5 23.6 17.8 66 4.2 NNW 19 32 10 17 1013.3 - 0.0
18/03:30pm 24.4 23.8 17.6 66 4.3 N 17 30 9 16 1013.4 - 0.0
18/03:15pm 24.5 24.3 17.6 65 4.3 NNW 15 24 8 13 1013.5 - 0.0
18/03:00pm 24.8 25.1 17.8 65 4.4 NNW 13 24 7 13 1013.7 - 0.0
18/02:45pm 25.0 25.3 17.8 64 4.5 NNW 13 22 7 12 1013.8 - 0.0
18/02:30pm 24.9 24.3 17.6 64 4.6 NNW 17 24 9 13 1013.8 - 0.0
18/02:15pm 25.2 24.1 17.7 63 4.7 NNW 20 33 11 18 1014.0 - 0.0
18/02:00pm 25.5 25.5 18.0 63 4.8 NNW 15 26 8 14 1013.9 - 0.0
18/01:45pm 25.6 25.6 18.0 63 4.8 NNW 15 30 8 16 1014.0 - 0.0
18/01:30pm 25.9 25.9 18.0 61 5.0 N 15 22 8 12 1014.0 - 0.0
18/01:15pm 26.4 25.9 17.9 59 5.4 NNW 17 26 9 14 1014.0 - 0.0
18/01:00pm 26.7 25.9 18.1 59 5.5 NNW 19 30 10 16 1014.1 - 0.0
18/12:45pm 26.8 25.9 18.2 59 5.5 NW 20 32 11 17 1014.4 - 0.0
18/12:30pm 26.4 26.7 18.7 62 4.9 NW 15 22 8 12 1014.8 - 0.0
18/12:15pm 25.9 25.2 18.6 64 4.7 NNW 20 32 11 17 1015.2 - 0.0
18/12:00pm 25.5 25.1 18.8 66 4.3 NNW 19 26 10 14 1015.5 - 0.0
18/11:45am 25.2 25.0 18.5 66 4.3 NW 17 30 9 16 1015.8 - 0.0
18/11:30am 25.2 24.8 18.9 68 4.0 NNW 19 28 10 15 1016.0 - 0.0
18/11:15am 24.7 25.5 19.1 71 3.6 NNW 13 22 7 12 1016.3 - 0.0
18/11:00am 24.3 24.2 18.7 71 3.6 NNW 17 24 9 13 1016.4 - 0.0
18/10:45am 24.3 23.8 18.7 71 3.6 NNW 19 28 10 15 1016.5 - 0.0
18/10:30am 24.5 24.8 19.5 73 3.2 NNW 17 28 9 15 1016.6 - 0.0
18/10:15am 23.7 23.9 19.4 77 2.8 NNW 17 28 9 15 1016.8 - 0.0
18/10:00am 23.5 23.5 19.8 80 2.4 NNW 19 26 10 14 1017.0 - 0.0
18/09:45am 23.1 24.0 20.8 87 1.5 NNW 17 28 9 15 1017.2 - 0.0
18/09:30am 22.0 23.7 20.9 93 0.7 NNW 13 24 7 13 1017.3 - 0.0
18/09:15am 21.1 22.1 20.3 95 0.5 NNW 15 22 8 12 1017.4 - 0.0
18/09:00am 20.8 21.8 20.2 96 0.4 NNW 15 24 8 13 1017.6 - 5.2
18/08:45am 20.4 21.2 19.8 96 0.4 NNW 15 22 8 12 1017.6 - 5.2
18/08:30am 19.8 19.9 19.2 96 0.4 NNW 17 24 9 13 1017.8 - 5.2
18/08:15am 19.2 19.1 18.7 97 0.3 NNW 17 22 9 12 1017.9 - 5.2
18/08:00am 19.0 18.8 18.4 96 0.4 NNW 17 20 9 11 1017.9 - 5.2
18/07:45am 18.8 19.2 18.2 96 0.4 NNW 13 19 7 10 1017.9 - 5.2
18/07:30am 18.6 18.2 18.0 96 0.4 NNW 17 20 9 11 1017.8 - 5.2
18/07:15am 18.4 17.5 17.8 96 0.4 NNW 19 22 10 12 1017.6 - 5.2
18/07:00am 18.2 18.0 17.7 97 0.3 NNW 15 19 8 10 1017.4 - 5.2
18/06:45am 18.3 18.5 17.7 96 0.4 NNW 13 15 7 8 1017.4 - 5.2
18/06:30am 18.3 18.6 17.8 97 0.3 NNW 13 17 7 9 1017.3 - 5.2
18/06:15am 18.4 18.7 17.8 96 0.4 NNW 13 19 7 10 1017.2 - 5.2
18/06:00am 18.4 18.7 17.8 96 0.4 NNW 13 17 7 9 1017.1 - 5.2
18/05:45am 18.3 18.6 17.8 97 0.3 N 13 17 7 9 1017.1 - 5.2
18/05:30am 18.4 18.3 17.9 97 0.3 NNW 15 19 8 10 1017.2 - 5.2
18/05:15am 18.4 18.7 17.8 96 0.4 NNW 13 19 7 10 1017.3 - 5.2
18/05:00am 18.4 18.7 17.8 96 0.4 NNW 13 17 7 9 1017.2 - 5.2
18/04:45am 18.5 18.0 17.9 96 0.4 NNW 17 19 9 10 1017.1 - 5.2
18/04:30am 18.5 18.0 17.9 96 0.4 NNW 17 22 9 12 1017.1 - 5.2
18/04:15am 18.5 18.4 17.9 96 0.4 NNW 15 19 8 10 1017.2 - 5.2
18/04:00am 18.5 18.8 17.9 96 0.4 NNW 13 17 7 9 1017.3 - 5.2
18/03:45am 18.6 18.9 18.0 96 0.4 NNW 13 15 7 8 1017.5 - 5.2
18/03:30am 18.6 18.9 18.0 96 0.4 NNW 13 17 7 9 1017.5 - 5.2
18/03:15am 18.6 18.5 17.9 96 0.4 NNW 15 17 8 9 1017.7 - 5.2
18/03:00am 18.6 18.9 18.0 96 0.4 NNW 13 17 7 9 1017.8 - 5.2
18/02:45am 18.6 18.6 18.0 96 0.4 NNW 15 17 8 9 1017.9 - 5.2
18/02:30am 18.8 19.2 18.1 96 0.4 NNW 13 15 7 8 1018.1 - 5.2
18/02:15am 19.0 19.9 18.3 96 0.4 NW 11 13 6 7 1018.5 - 5.2
18/02:00am 19.1 20.0 18.4 96 0.4 NW 11 20 6 11 1018.8 - 5.2
18/01:45am 19.1 19.6 18.4 96 0.4 NW 13 19 7 10 1019.0 - 5.2
18/01:30am 19.1 20.0 18.4 96 0.4 NW 11 15 6 8 1019.1 - 5.2
18/01:15am 19.2 20.1 18.5 96 0.4 NW 11 17 6 9 1019.3 - 5.2
18/01:00am 19.2 20.1 18.5 96 0.4 NW 11 13 6 7 1019.6 - 5.2
18/12:45am 19.2 20.1 18.5 96 0.4 WNW 11 13 6 7 1019.7 - 5.2
18/12:30am 19.1 20.0 18.5 96 0.4 WNW 11 15 6 8 1019.8 - 5.2
18/12:15am 19.0 20.2 18.2 95 0.5 NW 9 11 5 6 1019.7 - 5.2
18/12:00am 19.1 20.4 18.4 96 0.4 NW 9 9 5 5 1020.0 - 5.2
 
Date/Time
EST
Temp
°C
App
Temp
°C
Dew
Point
Rel
Hum
%
Delta-T
°C
Wind Press
QNH
hPa
Press
MSL
hPa
Rain
since 9 am
mm
Dir
 
Spd
km/h
Gust
km/h
Spd
kts
Gust
kts
17/11:45pm 19.1 20.4 18.4 96 0.4 NNW 9 11 5 6 1020.3 - 5.2
17/11:30pm 19.0 20.3 18.4 96 0.4 NNW 9 13 5 7 1020.5 - 5.2
17/11:15pm 19.0 20.3 18.4 96 0.4 NW 9 11 5 6 1020.6 - 5.2
17/11:00pm 19.0 20.2 18.3 96 0.4 NW 9 9 5 5 1020.7 - 5.2
17/10:45pm 18.9 20.1 18.2 96 0.4 NNW 9 9 5 5 1020.9 - 5.2
17/10:30pm 18.9 20.5 18.2 96 0.4 N 7 9 4 5 1021.0 - 5.2
17/10:15pm 18.8 19.9 18.1 96 0.4 N 9 11 5 6 1021.2 - 5.2
17/10:00pm 18.8 20.3 18.1 96 0.4 NNE 7 9 4 5 1021.2 - 5.2
17/09:45pm 18.8 19.9 18.1 96 0.4 NNE 9 11 5 6 1021.3 - 5.2
17/09:30pm 18.8 19.9 18.1 96 0.4 NNE 9 11 5 6 1021.4 - 5.2
17/09:15pm 18.8 19.9 18.1 96 0.4 NE 9 13 5 7 1021.4 - 5.2
17/09:00pm 18.8 19.6 18.1 96 0.4 NE 11 13 6 7 1021.5 - 5.2
17/08:45pm 18.7 19.8 18.1 96 0.4 NE 9 11 5 6 1021.7 - 5.2
17/08:30pm 18.7 19.8 18.0 96 0.4 NE 9 11 5 6 1021.7 - 5.2
17/08:15pm 18.6 20.0 17.9 96 0.4 NE 7 9 4 5 1021.8 - 5.2
17/08:00pm 18.6 20.0 17.9 96 0.4 NE 7 9 4 5 1021.7 - 5.2
17/07:45pm 18.6 20.0 17.9 96 0.4 NE 7 13 4 7 1021.5 - 5.2
17/07:30pm 18.7 19.4 18.0 96 0.4 NE 11 13 6 7 1021.5 - 5.2
17/07:15pm 18.7 19.4 18.0 96 0.4 ENE 11 17 6 9 1021.5 - 5.2
17/07:00pm 18.8 19.9 18.1 96 0.4 ENE 9 13 5 7 1021.5 - 5.2
17/06:45pm 18.9 20.1 18.2 96 0.4 ENE 9 13 5 7 1021.5 - 5.2
17/06:30pm 18.9 20.5 18.2 96 0.4 ENE 7 11 4 6 1021.5 - 5.2
17/06:15pm 19.0 20.2 18.3 96 0.4 ENE 9 13 5 7 1021.4 - 5.2
17/06:00pm 19.0 20.8 18.3 96 0.4 E 6 9 3 5 1021.5 - 5.2
17/05:45pm 19.0 20.8 18.3 96 0.4 E 6 9 3 5 1021.4 - 5.2
17/05:30pm 18.9 20.7 18.3 96 0.4 E 6 9 3 5 1021.4 - 5.2
17/05:15pm 19.0 20.6 18.3 96 0.4 E 7 9 4 5 1021.3 - 5.2
17/05:00pm 19.1 20.8 18.4 96 0.4 ENE 7 9 4 5 1021.2 - 5.2
17/04:45pm 19.2 20.5 18.5 96 0.4 ENE 9 13 5 7 1021.2 - 5.2
17/04:30pm 19.2 20.6 18.6 96 0.4 ENE 9 13 5 7 1021.2 - 5.2
17/04:15pm 19.3 21.0 18.6 96 0.4 ENE 7 11 4 6 1021.2 - 5.2
17/04:00pm 19.3 21.1 18.7 96 0.4 ENE 7 11 4 6 1021.3 - 5.2
17/03:45pm 19.3 20.7 18.7 96 0.4 ENE 9 13 5 7 1021.3 - 5.2
17/03:30pm 19.3 20.7 18.7 96 0.4 ENE 9 15 5 8 1021.4 - 5.2
17/03:15pm 19.2 20.6 18.6 96 0.4 ENE 9 15 5 8 1021.4 - 5.2
17/03:00pm 19.2 20.6 18.6 96 0.4 ENE 9 15 5 8 1021.5 - 5.2
17/02:45pm 19.1 20.4 18.5 96 0.4 NE 9 13 5 7 1021.6 - 5.2
17/02:30pm 19.1 20.4 18.5 96 0.4 NE 9 15 5 8 1021.7 - 5.2
17/02:15pm 19.1 20.4 18.5 96 0.4 ENE 9 15 5 8 1021.7 - 5.2
17/02:00pm 19.0 20.3 18.4 96 0.4 ENE 9 13 5 7 1021.9 - 5.2
17/01:45pm 18.9 20.1 18.3 96 0.4 ENE 9 17 5 9 1022.1 - 5.2
17/01:30pm 18.9 20.5 18.3 96 0.4 ENE 7 11 4 6 1022.3 - 5.2
17/01:15pm 18.9 20.5 18.2 96 0.4 ENE 7 13 4 7 1022.5 - 5.2
17/01:00pm 18.8 20.5 18.1 96 0.4 NE 6 9 3 5 1022.9 - 5.2
17/12:45pm 18.7 20.2 18.1 96 0.4 NE 7 15 4 8 1023.2 - 5.0
17/12:30pm 18.8 19.6 18.1 96 0.4 ENE 11 19 6 10 1023.2 - 5.0
17/12:15pm 18.8 19.6 18.1 96 0.4 ENE 11 17 6 9 1023.5 - 5.0
17/12:00pm 18.8 20.3 18.1 96 0.4 NE 7 13 4 7 1024.1 - 3.6
17/11:45am 18.8 20.5 18.1 96 0.4 E 6 9 3 5 1024.2 - 2.3
17/11:30am 18.8 20.9 18.1 96 0.4 ENE 4 7 2 4 1024.4 - 1.4
17/11:15am 18.8 19.9 18.1 96 0.4 NE 9 15 5 8 1024.5 - 1.1
17/11:00am 18.8 20.3 18.1 96 0.4 ENE 7 13 4 7 1024.6 - 1.1
17/10:45am 18.8 20.9 18.1 96 0.4 E 4 7 2 4 1024.8 - 0.9

Other Formats:

Comma delimited format used in spreadsheet applications
http://www.bom.gov.au/fwo/IDN60801/IDN60801.95757.axf

JavaScript Object Notation format (JSON) in row-major order
http://www.bom.gov.au/fwo/IDN60801/IDN60801.95757.json